createdAt,value
2018-09-01T00:02:15.166Z,6.40
2018-09-01T00:04:43.985Z,4.78
2018-09-01T00:07:12.717Z,6.33
2018-09-01T00:09:41.464Z,6.72
2018-09-01T00:12:10.196Z,8.43
2018-09-01T00:14:38.789Z,5.22
2018-09-01T00:17:07.544Z,5.10
2018-09-01T00:19:36.191Z,5.03
2018-09-01T00:22:04.876Z,5.20
2018-09-01T00:24:33.618Z,6.22
2018-09-01T00:27:02.225Z,6.25
2018-09-01T00:29:30.960Z,6.62
2018-09-01T00:31:59.709Z,5.10
2018-09-01T00:34:28.529Z,5.10
2018-09-01T00:36:58.364Z,5.72
2018-09-01T00:39:27.199Z,5.33
2018-09-01T00:41:55.820Z,5.87
2018-09-01T00:44:24.620Z,6.65
2018-09-01T00:46:53.535Z,5.20
2018-09-01T00:49:21.888Z,4.92
2018-09-01T00:51:50.601Z,5.50
2018-09-01T00:54:19.301Z,5.40
2018-09-01T00:56:47.924Z,6.78
2018-09-01T00:59:16.654Z,5.85
2018-09-01T01:01:45.416Z,8.13
2018-09-01T01:04:14.152Z,5.50
2018-09-01T01:06:44.226Z,6.67
2018-09-01T01:09:12.568Z,5.22
2018-09-01T01:11:41.100Z,4.95
2018-09-01T01:14:09.816Z,5.42
2018-09-01T01:16:38.536Z,5.20
2018-09-01T01:19:08.352Z,5.15
2018-09-01T01:21:37.028Z,5.70
2018-09-01T01:24:06.171Z,6.85
2018-09-01T01:26:34.557Z,5.33
2018-09-01T01:29:03.616Z,5.05
2018-09-01T01:31:32.267Z,5.62
2018-09-01T01:34:01.192Z,6.05
2018-09-01T01:36:29.855Z,6.92
2018-09-01T01:38:58.595Z,5.60
2018-09-01T01:41:27.203Z,7.55
2018-09-01T01:50:55.248Z,5.62
2018-09-01T01:53:24.047Z,5.28
2018-09-01T01:55:52.301Z,5.55
2018-09-01T01:58:20.845Z,5.62
2018-09-01T02:00:49.445Z,6.05
2018-09-01T02:03:18.049Z,5.37
2018-09-01T02:05:46.953Z,6.40
2018-09-01T02:08:15.456Z,5.05
2018-09-01T02:10:44.147Z,5.60
2018-09-01T02:13:13.292Z,5.97
2018-09-01T02:15:41.681Z,7.08
2018-09-01T02:18:10.574Z,5.60
2018-09-01T02:20:39.096Z,5.67
2018-09-01T02:23:07.805Z,6.03
2018-09-01T02:25:36.856Z,6.25
2018-09-01T02:28:05.444Z,5.50
2018-09-01T02:30:34.199Z,6.22
2018-09-01T02:33:03.032Z,6.05
2018-09-01T02:35:31.584Z,8.25
2018-09-01T02:38:00.289Z,5.80
2018-09-01T02:40:29.264Z,7.17
2018-09-01T02:42:57.778Z,5.67
2018-09-01T02:45:26.476Z,5.97
2018-09-01T02:47:55.200Z,6.37
2018-09-01T02:50:23.909Z,5.87
2018-09-01T02:52:52.793Z,5.72
2018-09-01T02:55:21.122Z,7.10
2018-09-01T02:57:49.844Z,6.53
2018-09-01T03:00:23.889Z,7.15
2018-09-01T03:02:52.218Z,5.33
2018-09-01T03:05:20.931Z,6.33
2018-09-01T03:07:49.504Z,7.15
2018-09-01T03:10:18.232Z,6.12
2018-09-01T03:12:46.968Z,7.65
2018-09-01T03:15:15.645Z,5.40
2018-09-01T03:17:44.302Z,5.78
2018-09-01T03:20:12.903Z,5.75
2018-09-01T03:22:42.801Z,6.33
2018-09-01T03:25:11.205Z,7.87
2018-09-01T03:27:39.853Z,6.78
2018-09-01T03:30:08.560Z,5.53
2018-09-01T03:32:37.388Z,5.35
2018-09-01T03:35:06.045Z,5.65
2018-09-01T03:37:34.664Z,5.67
2018-09-01T03:40:03.203Z,6.28
2018-09-01T03:42:31.815Z,7.17
2018-09-01T03:45:00.610Z,5.42
2018-09-01T03:47:29.192Z,5.80
2018-09-01T03:49:57.788Z,5.58
2018-09-01T03:52:26.399Z,5.47
2018-09-01T03:54:55.113Z,5.05
2018-09-01T03:57:23.724Z,4.42
2018-09-01T03:59:52.325Z,3.85
2018-09-01T04:02:21.025Z,4.20
2018-09-01T04:04:49.749Z,2.98
2018-09-01T04:07:18.460Z,3.00
2018-09-01T04:09:47.091Z,3.12
2018-09-01T04:12:15.829Z,3.22
2018-09-01T04:14:44.832Z,2.52
2018-09-01T04:17:13.456Z,2.75
2018-09-01T04:19:42.308Z,2.55
2018-09-01T04:22:10.748Z,2.42
2018-09-01T04:24:40.377Z,2.40
2018-09-01T04:27:09.506Z,2.77
2018-09-01T04:29:37.920Z,2.65
2018-09-01T04:32:06.789Z,2.67
2018-09-01T04:34:35.483Z,3.20
2018-09-01T04:37:04.238Z,3.00
2018-09-01T04:39:35.925Z,4.10
2018-09-01T04:42:04.987Z,4.42
2018-09-01T04:44:33.509Z,3.92
2018-09-01T04:47:02.548Z,5.22
2018-09-01T04:49:31.275Z,4.22
2018-09-01T04:51:59.772Z,4.75
2018-09-01T04:54:28.488Z,4.78
2018-09-01T04:56:57.460Z,5.37
2018-09-01T04:59:25.851Z,6.15
2018-09-01T05:01:54.756Z,5.30
2018-09-01T05:04:23.376Z,5.03
2018-09-01T05:06:51.992Z,5.95
2018-09-01T05:09:20.938Z,5.22
2018-09-01T05:11:49.544Z,5.83
2018-09-01T05:14:18.565Z,5.35
2018-09-01T05:16:47.211Z,5.55
2018-09-01T05:19:15.821Z,5.60
2018-09-01T05:21:44.460Z,5.03
2018-09-01T05:24:12.988Z,5.00
2018-09-01T05:26:41.552Z,5.50
2018-09-01T05:29:10.264Z,5.75
2018-09-01T05:31:38.912Z,6.03
2018-09-01T05:34:07.611Z,5.40
2018-09-01T05:36:36.627Z,6.08
2018-09-01T05:39:08.180Z,6.20
2018-09-01T05:41:37.372Z,6.05
2018-09-01T05:44:06.453Z,6.15
2018-09-01T05:46:35.254Z,7.25
2018-09-01T05:49:04.156Z,6.87
2018-09-01T05:51:33.256Z,7.72
2018-09-01T05:54:02.091Z,8.00
2018-09-01T05:56:30.504Z,7.28
2018-09-01T05:58:59.632Z,10.50
2018-09-01T06:01:28.300Z,11.03
2018-09-01T06:03:56.636Z,9.83
2018-09-01T06:06:26.363Z,9.68
2018-09-01T06:08:54.867Z,9.10
2018-09-01T06:11:26.656Z,8.95
2018-09-01T06:13:55.292Z,12.07
2018-09-01T06:16:23.968Z,10.68
2018-09-01T06:20:22.022Z,10.13
2018-09-01T06:22:50.943Z,15.60
2018-09-01T06:25:19.586Z,19.42
2018-09-01T06:27:50.356Z,18.42
2018-09-01T06:30:22.484Z,15.30
2018-09-01T06:32:52.119Z,14.03
2018-09-01T06:35:20.560Z,19.25
2018-09-01T06:37:49.136Z,15.13
2018-09-01T06:40:17.977Z,15.28
2018-09-01T06:42:46.555Z,13.55
2018-09-01T06:45:15.229Z,12.50
2018-09-01T06:47:43.978Z,15.20
2018-09-01T06:50:12.600Z,14.70
2018-09-01T06:52:41.272Z,11.33
2018-09-01T06:55:10.091Z,10.32
2018-09-01T06:57:38.808Z,10.50
2018-09-01T07:00:07.416Z,9.45
2018-09-01T07:02:36.160Z,8.18
2018-09-01T07:05:05.052Z,7.72
2018-09-01T07:07:34.093Z,6.83
2018-09-01T07:10:02.521Z,6.17
2018-09-01T07:12:31.432Z,6.80
2018-09-01T07:15:00.059Z,6.47
2018-09-01T07:17:28.784Z,6.83
2018-09-01T07:19:57.676Z,5.20
2018-09-01T07:22:26.096Z,6.92
2018-09-01T07:24:54.702Z,6.45
2018-09-01T07:27:23.469Z,7.33
2018-09-01T07:29:52.220Z,4.20
2018-09-01T07:32:21.166Z,4.95
2018-09-01T07:34:49.685Z,4.67
2018-09-01T07:37:18.346Z,5.30
2018-09-01T07:39:46.989Z,3.75
2018-09-01T07:42:15.944Z,6.75
2018-09-01T07:44:44.376Z,4.10
2018-09-01T07:47:12.892Z,5.08
2018-09-01T07:49:41.928Z,3.30
2018-09-01T07:52:10.157Z,3.25
2018-09-01T07:54:39.187Z,4.50
2018-09-01T07:57:07.780Z,3.20
2018-09-01T07:59:36.832Z,3.27
2018-09-01T08:02:05.325Z,3.35
2018-09-01T08:04:33.999Z,3.45
2018-09-01T08:07:02.728Z,5.42
2018-09-01T08:09:32.014Z,3.47
2018-09-01T08:12:00.517Z,3.65
2018-09-01T08:14:29.282Z,2.45
2018-09-01T08:16:58.285Z,4.50
2018-09-01T08:19:26.621Z,2.42
2018-09-01T08:21:55.344Z,3.83
2018-09-01T08:24:24.106Z,2.35
2018-09-01T08:26:52.951Z,3.70
2018-09-01T08:29:21.580Z,4.47
2018-09-01T08:31:50.301Z,1.55
2018-09-01T08:34:19.193Z,2.17
2018-09-01T08:36:47.920Z,1.80
2018-09-01T08:39:16.528Z,2.17
2018-09-01T08:41:45.372Z,2.37
2018-09-01T08:45:38.582Z,2.83
2018-09-01T08:48:07.184Z,2.67
2018-09-01T08:50:35.922Z,2.45
2018-09-01T08:53:04.960Z,3.17
2018-09-01T08:55:33.408Z,4.72
2018-09-01T08:58:02.320Z,5.30
2018-09-01T09:00:30.920Z,3.52
2018-09-01T09:02:59.668Z,1.60
2018-09-01T09:05:28.661Z,1.95
2018-09-01T09:07:57.047Z,3.20
2018-09-01T09:10:26.793Z,2.50
2018-09-01T09:12:55.350Z,3.05
2018-09-01T09:15:24.231Z,2.85
2018-09-01T09:17:53.130Z,2.55
2018-09-01T09:20:21.713Z,1.70
2018-09-01T09:22:50.548Z,2.85
2018-09-01T09:25:19.652Z,3.37
2018-09-01T09:27:48.175Z,6.80
2018-09-01T09:30:16.898Z,2.25
2018-09-01T09:32:45.831Z,1.98
2018-09-01T09:35:14.292Z,2.90
2018-09-01T09:37:43.300Z,4.83
2018-09-01T09:40:12.245Z,2.08
2018-09-01T09:42:40.762Z,5.30
2018-09-01T09:45:10.890Z,2.33
2018-09-01T09:47:39.320Z,3.45
2018-09-01T09:50:08.109Z,1.95
2018-09-01T09:52:37.127Z,6.35
2018-09-01T09:55:05.676Z,2.75
2018-09-01T09:57:34.201Z,3.33
2018-09-01T10:00:03.055Z,2.17
2018-09-01T10:02:31.556Z,3.25
2018-09-01T10:05:00.320Z,4.03
2018-09-01T10:07:29.158Z,1.87
2018-09-01T10:09:58.105Z,1.92
2018-09-01T10:12:26.855Z,3.00
2018-09-01T10:14:55.540Z,2.67
2018-09-01T10:17:24.206Z,2.10
2018-09-01T10:19:52.717Z,2.15
2018-09-01T10:22:21.855Z,2.85
2018-09-01T10:24:50.288Z,2.83
2018-09-01T10:27:19.000Z,3.50
2018-09-01T10:31:12.187Z,4.40
2018-09-01T10:33:40.876Z,2.75
2018-09-01T10:36:09.525Z,1.32
2018-09-01T10:38:38.352Z,4.70
2018-09-01T10:41:07.436Z,3.45
2018-09-01T10:43:36.160Z,3.35
2018-09-01T10:46:05.400Z,1.52
2018-09-01T10:48:33.812Z,3.37
2018-09-01T10:51:02.843Z,2.85
2018-09-01T10:53:31.180Z,2.50
2018-09-01T10:55:59.752Z,3.02
2018-09-01T10:58:28.369Z,2.37
2018-09-01T11:00:57.335Z,2.25
2018-09-01T11:03:25.748Z,1.32
2018-09-01T11:05:54.559Z,2.33
2018-09-01T11:08:24.716Z,2.80
2018-09-01T11:10:54.133Z,3.90
2018-09-01T11:13:22.944Z,1.98
2018-09-01T11:15:51.712Z,1.90
2018-09-01T11:18:20.257Z,3.42
2018-09-01T11:20:49.117Z,3.90
2018-09-01T11:23:18.100Z,4.50
2018-09-01T11:25:46.825Z,2.05
2018-09-01T11:28:15.554Z,2.47
2018-09-01T11:30:44.204Z,3.12
2018-09-01T11:33:13.217Z,2.95
2018-09-01T11:35:41.948Z,3.15
2018-09-01T11:38:10.495Z,2.00
2018-09-01T11:40:39.106Z,2.35
2018-09-01T11:43:08.112Z,1.67
2018-09-01T11:45:36.632Z,3.92
2018-09-01T11:48:05.647Z,1.45
2018-09-01T11:50:34.409Z,2.77
2018-09-01T11:53:03.590Z,3.20
2018-09-01T11:55:32.373Z,1.30
2018-09-01T11:58:01.090Z,3.02
2018-09-01T12:00:29.824Z,1.27
2018-09-01T12:02:58.350Z,3.87
2018-09-01T12:05:27.336Z,2.60
2018-09-01T12:07:57.068Z,2.08
2018-09-01T12:10:25.380Z,1.80
2018-09-01T12:12:54.091Z,4.15
2018-09-01T12:15:22.842Z,3.70
2018-09-01T12:17:51.844Z,1.07
2018-09-01T12:20:20.420Z,2.27
2018-09-01T12:22:49.136Z,2.20
2018-09-01T12:25:17.767Z,2.12
2018-09-01T12:27:46.597Z,2.70
2018-09-01T12:30:15.487Z,1.70
2018-09-01T12:32:43.925Z,3.20
2018-09-01T12:35:12.581Z,1.52
2018-09-01T12:37:41.321Z,4.15
2018-09-01T12:40:10.192Z,1.20
2018-09-01T12:42:38.689Z,2.90
2018-09-01T12:45:08.471Z,1.75
2018-09-01T12:47:37.161Z,1.30
2018-09-01T12:50:06.095Z,2.00
2018-09-01T12:52:34.824Z,2.12
2018-09-01T12:55:03.623Z,1.82
2018-09-01T12:57:32.773Z,2.47
2018-09-01T13:00:01.404Z,2.33
2018-09-01T13:02:30.859Z,4.67
2018-09-01T13:04:59.668Z,4.70
2018-09-01T13:07:28.621Z,2.25
2018-09-01T13:09:56.973Z,1.37
2018-09-01T13:12:26.154Z,1.45
2018-09-01T13:14:54.760Z,2.70
2018-09-01T13:17:23.573Z,1.40
2018-09-01T13:19:52.190Z,2.67
2018-09-01T13:22:20.944Z,2.27
2018-09-01T13:24:49.537Z,1.20
2018-09-01T13:27:18.248Z,1.98
2018-09-01T13:29:47.244Z,2.02
2018-09-01T13:32:15.547Z,2.72
2018-09-01T13:34:44.064Z,1.70
2018-09-01T13:37:12.698Z,2.83
2018-09-01T13:39:41.397Z,2.52
2018-09-01T13:42:10.116Z,2.72
2018-09-01T13:44:38.875Z,3.52
2018-09-01T13:47:07.258Z,1.67
2018-09-01T13:49:35.850Z,2.75
2018-09-01T13:52:05.034Z,2.95
2018-09-01T13:54:33.410Z,2.47
2018-09-01T13:57:02.204Z,3.70
2018-09-01T13:59:30.849Z,5.22
2018-09-01T14:01:59.464Z,2.67
2018-09-01T14:04:28.340Z,3.87
2018-09-01T14:06:57.055Z,3.80
2018-09-01T14:09:25.868Z,1.90
2018-09-01T14:11:54.697Z,2.30
2018-09-01T14:14:23.787Z,2.45
2018-09-01T14:16:53.029Z,2.80
2018-09-01T14:19:22.129Z,1.80
2018-09-01T14:21:50.848Z,1.90
2018-09-01T14:24:19.748Z,2.90
2018-09-01T14:26:48.448Z,2.80
2018-09-01T14:29:17.069Z,3.17
2018-09-01T14:31:45.791Z,4.00
2018-09-01T14:34:14.506Z,3.40
2018-09-01T14:36:43.048Z,4.25
2018-09-01T14:39:12.285Z,1.65
2018-09-01T14:41:40.512Z,3.47
2018-09-01T14:44:09.342Z,2.22
2018-09-01T14:46:37.886Z,2.90
2018-09-01T14:49:06.624Z,2.35
2018-09-01T14:51:35.347Z,5.12
2018-09-01T14:54:04.162Z,3.15
2018-09-01T14:56:33.012Z,1.62
2018-09-01T14:59:01.748Z,1.62
2018-09-01T15:01:30.482Z,1.85
2018-09-01T15:03:59.047Z,1.17
2018-09-01T15:06:29.189Z,1.98
2018-09-01T15:08:59.424Z,1.35
2018-09-01T15:11:28.204Z,3.92
2018-09-01T15:13:57.106Z,1.87
2018-09-01T15:16:26.764Z,1.12
2018-09-01T15:18:56.591Z,2.65
2018-09-01T15:21:25.316Z,9.43
2018-09-01T15:23:54.120Z,4.62
2018-09-01T15:26:23.998Z,2.08
2018-09-01T15:28:52.832Z,2.37
2018-09-01T15:31:21.753Z,1.30
2018-09-01T15:33:51.356Z,2.83
2018-09-01T15:36:21.087Z,2.50
2018-09-01T15:38:49.609Z,1.72
2018-09-01T15:41:18.504Z,3.25
2018-09-01T15:43:47.228Z,1.82
2018-09-01T15:46:15.848Z,4.08
2018-09-01T15:48:44.604Z,3.10
2018-09-01T15:51:13.135Z,1.60
2018-09-01T15:53:41.880Z,3.47
2018-09-01T15:56:10.533Z,1.30
2018-09-01T15:58:39.132Z,2.95
2018-09-01T16:01:07.996Z,0.90
2018-09-01T16:03:36.747Z,2.50
2018-09-01T16:06:05.596Z,0.80
2018-09-01T16:08:34.460Z,2.35
2018-09-01T16:11:03.186Z,5.62
2018-09-01T16:13:31.967Z,3.65
2018-09-01T16:16:00.473Z,2.12
2018-09-01T16:18:29.404Z,1.80
2018-09-01T16:20:58.022Z,3.15
2018-09-01T16:23:26.697Z,1.60
2018-09-01T16:25:55.780Z,0.93
2018-09-01T16:28:24.328Z,2.33
2018-09-01T16:30:54.034Z,1.35
2018-09-01T16:33:23.011Z,3.17
2018-09-01T16:35:51.565Z,2.35
2018-09-01T16:38:21.740Z,2.83
2018-09-01T16:40:51.184Z,2.42
2018-09-01T16:43:20.052Z,2.17
2018-09-01T16:45:48.453Z,2.10
2018-09-01T16:48:17.164Z,1.92
2018-09-01T16:50:45.779Z,1.32
2018-09-01T16:53:15.314Z,1.20
2018-09-01T16:55:44.983Z,1.50
2018-09-01T16:58:13.717Z,2.27
2018-09-01T17:00:42.552Z,1.82
2018-09-01T17:03:11.301Z,1.70
2018-09-01T17:05:40.078Z,1.87
2018-09-01T17:08:09.040Z,2.02
2018-09-01T17:10:37.606Z,1.77
2018-09-01T17:13:06.471Z,2.67
2018-09-01T17:15:35.283Z,2.35
2018-09-01T17:18:05.335Z,5.15
2018-09-01T17:20:34.125Z,7.72
2018-09-01T17:23:02.536Z,9.15
2018-09-01T17:25:31.949Z,3.98
2018-09-01T17:28:01.164Z,2.33
2018-09-01T17:30:29.662Z,2.40
2018-09-01T17:32:58.185Z,1.80
2018-09-01T17:35:26.727Z,1.85
2018-09-01T17:37:55.484Z,5.55
2018-09-01T17:40:24.426Z,3.90
2018-09-01T17:42:53.231Z,5.10
2018-09-01T17:45:22.032Z,4.25
2018-09-01T17:47:51.452Z,3.60
2018-09-01T17:50:19.660Z,4.17
2018-09-01T17:52:48.493Z,5.30
2018-09-01T17:55:17.237Z,3.00
2018-09-01T17:57:45.953Z,2.95
2018-09-01T18:00:14.569Z,3.22
2018-09-01T18:02:43.426Z,2.30
2018-09-01T18:05:12.135Z,4.45
2018-09-01T18:07:41.150Z,2.00
2018-09-01T18:10:09.689Z,2.72
2018-09-01T18:12:39.328Z,2.65
2018-09-01T18:15:08.145Z,2.85
2018-09-01T18:17:36.821Z,3.33
2018-09-01T18:20:05.665Z,2.15
2018-09-01T18:22:34.734Z,2.12
2018-09-01T18:25:03.619Z,2.58
2018-09-01T18:27:32.091Z,3.20
2018-09-01T18:30:00.858Z,1.67
2018-09-01T18:32:30.857Z,2.02
2018-09-01T18:34:59.289Z,1.98
2018-09-01T18:37:27.564Z,2.05
2018-09-01T18:39:56.284Z,2.33
2018-09-01T18:42:24.967Z,4.65
2018-09-01T18:44:53.784Z,3.27
2018-09-01T18:47:22.461Z,3.45
2018-09-01T18:49:51.529Z,2.27
2018-09-01T18:52:19.845Z,3.87
2018-09-01T18:54:48.720Z,1.90
2018-09-01T18:57:16.999Z,3.12
2018-09-01T18:59:45.834Z,3.42
2018-09-01T19:02:14.776Z,2.98
2018-09-01T19:04:43.147Z,4.62
2018-09-01T19:07:12.116Z,5.70
2018-09-01T19:09:40.920Z,4.22
2018-09-01T19:12:09.384Z,3.35
2018-09-01T19:14:37.955Z,4.65
2018-09-01T19:17:06.559Z,5.25
2018-09-01T19:19:35.294Z,2.83
2018-09-01T19:22:04.229Z,5.70
2018-09-01T19:24:34.199Z,2.40
2018-09-01T19:27:02.584Z,4.30
2018-09-01T19:29:31.038Z,2.60
2018-09-01T19:32:00.214Z,2.98
2018-09-01T19:34:28.852Z,5.28
2018-09-01T19:36:57.604Z,3.17
2018-09-01T19:39:26.319Z,3.08
2018-09-01T19:41:54.922Z,3.65
2018-09-01T19:44:23.749Z,3.40
2018-09-01T19:46:52.464Z,3.92
2018-09-01T19:49:21.265Z,5.12
2018-09-01T19:51:49.835Z,2.70
2018-09-01T19:54:18.267Z,4.10
2018-09-01T19:56:47.034Z,4.90
2018-09-01T19:59:15.584Z,4.03
2018-09-01T20:01:45.620Z,4.12
2018-09-01T20:04:14.053Z,3.58
2018-09-01T20:06:42.620Z,5.45
2018-09-01T20:09:11.644Z,6.47
2018-09-01T20:11:40.341Z,5.67
2018-09-01T20:14:09.309Z,6.12
2018-09-01T20:16:38.045Z,5.33
2018-09-01T20:19:06.732Z,5.33
2018-09-01T20:21:35.474Z,5.30
2018-09-01T20:24:04.833Z,4.67
2018-09-01T20:26:33.893Z,5.70
2018-09-01T20:29:02.514Z,4.92
2018-09-01T20:31:31.450Z,6.03
2018-09-01T20:33:59.997Z,7.75
2018-09-01T20:36:28.625Z,5.65
2018-09-01T20:38:57.225Z,5.95
2018-09-01T20:41:25.877Z,4.83
2018-09-01T20:43:54.388Z,5.42
2018-09-01T20:46:23.048Z,7.83
2018-09-01T20:48:52.005Z,6.40
2018-09-01T20:51:20.542Z,5.85
2018-09-01T20:53:50.612Z,5.85
2018-09-01T20:56:18.836Z,5.55
2018-09-01T20:58:47.637Z,6.30
2018-09-01T21:01:16.328Z,5.03
2018-09-01T21:03:44.572Z,5.15
2018-09-01T21:06:13.268Z,5.45
2018-09-01T21:08:42.082Z,5.90
2018-09-01T21:11:10.840Z,5.85
2018-09-01T21:13:39.548Z,7.78
2018-09-01T21:16:08.087Z,6.53
2018-09-01T21:18:36.801Z,7.85
2018-09-01T21:21:05.880Z,7.75
2018-09-01T21:23:34.508Z,5.62
2018-09-01T21:26:02.910Z,6.35
2018-09-01T21:28:32.741Z,7.22
2018-09-01T21:31:01.172Z,6.00
2018-09-01T21:33:29.820Z,5.20
2018-09-01T21:35:58.536Z,5.92
2018-09-01T21:38:27.239Z,7.45
2018-09-01T21:40:56.075Z,5.15
2018-09-01T21:43:24.725Z,5.10
2018-09-01T21:45:53.641Z,5.62
2018-09-01T21:48:22.344Z,5.62
2018-09-01T21:50:51.023Z,4.95
2018-09-01T21:53:19.721Z,7.70
2018-09-01T21:55:48.684Z,4.85
2018-09-01T21:58:17.200Z,5.00
2018-09-01T22:00:51.707Z,7.60
2018-09-01T22:03:21.837Z,5.50
2018-09-01T22:05:50.624Z,5.87
2018-09-01T22:08:19.528Z,7.12
2018-09-01T22:10:48.045Z,5.35
2018-09-01T22:13:16.653Z,4.97
2018-09-01T22:15:45.337Z,6.60
2018-09-01T22:18:13.957Z,4.60
2018-09-01T22:20:42.960Z,4.35
2018-09-01T22:23:11.493Z,5.60
2018-09-01T22:25:40.097Z,5.22
2018-09-01T22:28:09.091Z,5.65
2018-09-01T22:30:37.735Z,4.95
2018-09-01T22:33:06.429Z,4.22
2018-09-01T22:35:35.146Z,4.75
2018-09-01T22:38:03.847Z,4.17
2018-09-01T22:40:32.536Z,6.12
2018-09-01T22:43:01.455Z,5.17
2018-09-01T22:45:30.375Z,4.97
2018-09-01T22:47:59.036Z,4.03
2018-09-01T22:50:27.972Z,4.30
2018-09-01T22:52:56.665Z,5.08
2018-09-01T22:55:25.172Z,3.62
2018-09-01T22:57:53.952Z,8.20
2018-09-01T23:00:22.532Z,4.60
2018-09-01T23:02:51.572Z,4.15
2018-09-01T23:05:19.888Z,3.95
2018-09-01T23:07:48.486Z,3.95
2018-09-01T23:10:17.004Z,5.55
2018-09-01T23:12:45.685Z,5.37
2018-09-01T23:15:14.544Z,3.90
2018-09-01T23:17:43.227Z,4.28
2018-09-01T23:20:11.836Z,5.35
2018-09-01T23:22:40.357Z,4.35
2018-09-01T23:25:09.152Z,4.58
2018-09-01T23:27:37.969Z,4.03
2018-09-01T23:30:06.793Z,5.45
2018-09-01T23:32:35.288Z,4.03
2018-09-01T23:35:03.930Z,3.87
2018-09-01T23:37:32.584Z,5.55
2018-09-01T23:40:01.580Z,3.92
2018-09-01T23:42:30.140Z,3.98
2018-09-01T23:44:58.665Z,5.55
2018-09-01T23:47:27.352Z,3.83
2018-09-01T23:49:56.305Z,6.75
2018-09-01T23:52:24.820Z,4.62
2018-09-01T23:54:53.686Z,5.33
2018-09-01T23:57:22.944Z,5.25
2018-09-01T23:59:52.027Z,5.58
